Time;durP1;ratioP1;P1;durP2;ratioP2;P2;SDS_P1;SDS_P2;PMS_P1;PMS_P2;Temp;Humidity;BMP_temperature;BMP_pressure;BME280_temperature;BME280_humidity;BME280_pressure;Samples;Min_cycle;Max_cycle;Signal;HPM_P1;HPM_P2
2022/12/12 00:00:05;;;;;;;36.85;16.58;;;;;;;-0.54;94.00;101021.06;5023196;28;20021;-66
2022/12/12 00:02:30;;;;;;;38.83;16.65;;;;;;;-0.54;93.09;101021.97;5023025;28;20025;-67
2022/12/12 00:04:56;;;;;;;38.85;16.45;;;;;;;-0.56;93.87;101033.75;5021527;28;20072;-67
2022/12/12 00:07:22;;;;;;;37.67;16.48;;;;;;;-0.56;93.14;101035.44;5016306;28;20026;-66
2022/12/12 00:09:47;;;;;;;37.92;16.98;;;;;;;-0.57;93.02;101034.53;5021460;28;20029;-67
2022/12/12 00:12:12;;;;;;;37.47;16.27;;;;;;;-0.58;93.55;101039.53;5026564;28;20029;-66
2022/12/12 00:14:38;;;;;;;34.58;16.10;;;;;;;-0.58;93.66;101035.31;5020546;28;20724;-67
2022/12/12 00:17:03;;;;;;;40.13;17.58;;;;;;;-0.54;93.14;101038.97;5021062;28;20032;-66
2022/12/12 00:19:28;;;;;;;38.15;16.27;;;;;;;-0.55;92.95;101038.09;5026350;28;20021;-66
2022/12/12 00:21:54;;;;;;;37.22;17.70;;;;;;;-0.56;92.36;101033.75;5026462;28;20026;-66
2022/12/12 00:24:19;;;;;;;36.13;15.57;;;;;;;-0.56;92.31;101033.75;5024988;28;20481;-66
2022/12/12 00:26:44;;;;;;;36.97;16.25;;;;;;;-0.56;92.03;101031.19;5012765;28;20027;-66
2022/12/12 00:29:10;;;;;;;34.33;15.52;;;;;;;-0.57;92.27;101031.97;5024605;28;20018;-66
2022/12/12 00:31:35;;;;;;;35.50;16.20;;;;;;;-0.58;92.02;101024.19;5019576;28;20072;-66
2022/12/12 00:34:00;;;;;;;31.65;14.82;;;;;;;-0.63;91.63;101028.97;5026345;28;20029;-66
2022/12/12 00:36:28;;;;;;;33.60;14.88;;;;;;;-0.65;92.12;101033.09;5026136;28;20017;-66
2022/12/12 00:38:54;;;;;;;36.28;16.23;;;;;;;-0.69;92.48;101033.66;5021825;28;20223;-66
2022/12/12 00:41:20;;;;;;;36.25;16.17;;;;;;;-0.74;92.25;101042.66;5024972;28;20038;-66
2022/12/12 00:43:45;;;;;;;34.33;16.00;;;;;;;-0.79;92.44;101038.91;5025992;28;20024;-66
2022/12/12 00:46:17;;;;;;;33.10;15.18;;;;;;;-0.83;92.18;101044.56;5026061;28;20097;-66
2022/12/12 00:48:43;;;;;;;33.88;15.25;;;;;;;-0.90;92.74;101041.56;5025765;28;20010;-66
2022/12/12 00:51:10;;;;;;;34.53;15.05;;;;;;;-0.97;92.81;101041.91;5025803;28;20014;-66
2022/12/12 00:53:37;;;;;;;37.33;15.30;;;;;;;-1.06;93.41;101041.22;5023593;28;20093;-66
2022/12/12 00:56:03;;;;;;;39.08;15.90;;;;;;;-1.12;92.99;101045.88;5015279;28;20018;-66
2022/12/12 00:58:29;;;;;;;36.10;15.38;;;;;;;-1.17;93.49;101040.44;5023064;28;20064;-66
2022/12/12 01:00:54;;;;;;;35.13;15.18;;;;;;;-1.19;93.53;101044.53;5025680;28;20022;-66
2022/12/12 01:03:20;;;;;;;38.58;16.48;;;;;;;-1.20;93.55;101047.88;5023081;28;20018;-66
2022/12/12 01:05:45;;;;;;;37.63;15.80;;;;;;;-1.19;93.82;101052.19;5006162;28;20085;-66
2022/12/12 01:08:11;;;;;;;36.90;15.25;;;;;;;-1.20;93.71;101053.00;5019166;28;20026;-66
2022/12/12 01:10:36;;;;;;;37.85;15.65;;;;;;;-1.23;93.49;101055.34;5025661;28;20021;-66
2022/12/12 01:13:01;;;;;;;34.28;15.85;;;;;;;-1.26;93.19;101058.53;5025507;28;20053;-66
2022/12/12 01:15:27;;;;;;;32.85;14.68;;;;;;;-1.30;93.20;101058.22;5025581;28;20028;-66
2022/12/12 01:17:52;;;;;;;36.55;14.90;;;;;;;-1.35;93.42;101055.28;5018849;28;20038;-62
2022/12/12 01:20:22;;;;;;;38.50;15.60;;;;;;;-1.34;93.39;101063.88;5025302;28;20017;-62
2022/12/12 01:22:48;;;;;;;35.25;15.48;;;;;;;-1.36;93.29;101062.84;5025519;28;20018;-62
2022/12/12 01:25:15;;;;;;;35.08;16.02;;;;;;;-1.40;93.86;101069.41;5025205;28;20053;-62
2022/12/12 01:27:40;;;;;;;38.90;16.48;;;;;;;-1.45;93.46;101074.16;5025222;28;20334;-62
2022/12/12 01:30:07;;;;;;;37.83;16.00;;;;;;;-1.49;93.37;101072.16;5011673;28;20022;-62
2022/12/12 01:32:33;;;;;;;35.05;15.93;;;;;;;-1.52;93.38;101071.00;5020393;28;20112;-62
2022/12/12 01:34:58;;;;;;;34.15;15.98;;;;;;;-1.54;93.99;101072.56;5025115;28;20010;-62
2022/12/12 01:37:23;;;;;;;36.42;16.02;;;;;;;-1.55;93.80;101068.22;5025017;28;20092;-62
2022/12/12 01:39:49;;;;;;;35.47;16.33;;;;;;;-1.57;93.84;101074.09;5025026;28;20030;-62
2022/12/12 01:42:17;;;;;;;39.70;16.95;;;;;;;-1.57;93.93;101078.34;5015490;28;20276;-62
2022/12/12 01:44:49;;;;;;;37.53;15.70;;;;;;;-1.60;94.28;101079.00;5007196;28;20056;-62
2022/12/12 01:47:17;;;;;;;38.47;16.13;;;;;;;-1.61;93.93;101079.78;5023738;28;20025;-62
2022/12/12 01:49:47;;;;;;;37.45;15.90;;;;;;;-1.62;93.61;101085.66;5024810;28;20244;-62
2022/12/12 01:52:18;;;;;;;37.30;16.42;;;;;;;-1.66;93.82;101083.63;5024848;28;20021;-62
2022/12/12 01:54:47;;;;;;;39.05;16.30;;;;;;;-1.68;94.00;101081.72;5024778;28;20025;-62
2022/12/12 01:57:24;;;;;;;38.78;16.15;;;;;;;-1.70;93.96;101085.84;5022209;28;20017;-62
2022/12/12 01:59:49;;;;;;;40.15;17.02;;;;;;;-1.69;94.20;101082.53;5004889;28;20041;-62
2022/12/12 02:02:14;;;;;;;35.42;17.17;;;;;;;-1.67;94.31;101096.31;5015842;28;20256;-62
2022/12/12 02:04:41;;;;;;;36.97;17.00;;;;;;;-1.68;94.43;101090.31;5025006;28;20176;-62
2022/12/12 02:07:06;;;;;;;38.33;15.82;;;;;;;-1.68;94.24;101091.94;5024484;28;20029;-62
2022/12/12 02:09:33;;;;;;;40.25;16.65;;;;;;;-1.70;94.39;101096.06;5024406;28;20081;-62
2022/12/12 02:11:58;;;;;;;41.58;17.30;;;;;;;-1.71;94.34;101096.84;5022093;28;20244;-62
2022/12/12 02:14:37;;;;;;;37.17;16.83;;;;;;;-1.71;94.44;101095.16;5020725;28;20026;-62
2022/12/12 02:17:37;;;;;;;35.97;16.30;;;;;;;-1.70;94.78;101103.72;5024948;28;20021;-66
2022/12/12 02:20:24;;;;;;;36.85;16.45;;;;;;;-1.70;94.38;101096.94;5016527;28;20216;-66
2022/12/12 02:23:24;;;;;;;35.50;15.30;;;;;;;-1.71;94.69;101097.72;5007850;28;20091;-66
2022/12/12 02:25:53;;;;;;;39.72;16.70;;;;;;;-1.74;93.92;101100.03;5024626;28;20029;-66
2022/12/12 02:28:43;;;;;;;33.08;15.77;;;;;;;-1.77;94.23;101104.91;5015260;28;20030;-66
2022/12/12 02:31:23;;;;;;;38.55;16.52;;;;;;;-1.82;94.44;101102.00;5022249;28;20261;-66
2022/12/12 02:34:06;;;;;;;38.28;16.92;;;;;;;-1.83;94.26;101107.00;5011532;28;20077;-66
2022/12/12 02:36:54;;;;;;;40.22;17.20;;;;;;;-1.85;94.32;101106.88;4993093;28;20018;-66
2022/12/12 02:39:34;;;;;;;36.80;16.00;;;;;;;-1.82;94.42;101104.56;5021421;28;20029;-66
2022/12/12 02:42:05;;;;;;;37.10;16.88;;;;;;;-1.79;94.15;101116.69;5022925;28;20291;-66
2022/12/12 02:44:38;;;;;;;35.78;16.35;;;;;;;-1.79;93.90;101103.91;5023752;28;20291;-66
2022/12/12 02:47:19;;;;;;;37.63;15.93;;;;;;;-1.80;94.14;101103.00;5024057;28;20045;-66
2022/12/12 02:49:57;;;;;;;36.55;16.63;;;;;;;-1.83;93.67;101095.09;5015835;28;20032;-66
2022/12/12 02:52:22;;;;;;;41.08;16.40;;;;;;;-1.86;93.70;101101.66;5051762;28;20083;-66
2022/12/12 02:54:48;;;;;;;37.38;16.88;;;;;;;-1.88;93.61;101101.53;5023905;28;20268;-66
2022/12/12 02:57:19;;;;;;;35.88;16.60;;;;;;;-1.91;93.44;101103.88;5023925;28;20080;-66
2022/12/12 02:59:53;;;;;;;36.55;16.52;;;;;;;-1.94;93.88;101099.41;5023960;28;20029;-66
2022/12/12 03:02:46;;;;;;;34.53;15.63;;;;;;;-1.92;93.95;101099.50;5020183;28;20018;-66
2022/12/12 03:08:48;;;;;;;41.08;16.13;;;;;;;-1.97;94.00;101096.63;5013589;28;20073;-66
2022/12/12 03:11:19;;;;;;;37.72;15.93;;;;;;;-2.02;93.91;101097.03;5012197;28;20068;-66
2022/12/12 03:14:09;;;;;;;43.17;16.98;;;;;;;-2.05;93.99;101096.78;5023786;28;20010;-66
2022/12/12 03:17:01;;;;;;;37.58;16.65;;;;;;;-2.07;94.11;101094.13;5023948;28;20045;-63
2022/12/12 03:19:52;;;;;;;36.10;15.52;;;;;;;-2.11;93.86;101095.53;5000902;28;20025;-64
2022/12/12 03:22:59;;;;;;;38.83;16.58;;;;;;;-2.11;93.99;101092.97;5016021;28;20026;-63
2022/12/12 03:25:50;;;;;;;37.13;15.10;;;;;;;-2.12;93.56;101093.72;5002762;28;20037;-63
2022/12/12 03:28:18;;;;;;;41.80;16.33;;;;;;;-2.14;93.33;101096.97;5008340;28;20096;-64
2022/12/12 03:30:47;;;;;;;36.33;16.50;;;;;;;-2.18;93.68;101092.38;5023130;28;20030;-63
2022/12/12 03:33:24;;;;;;;37.65;15.55;;;;;;;-2.21;93.38;101097.25;5016629;28;20093;-63
2022/12/12 03:35:58;;;;;;;35.83;15.85;;;;;;;-2.25;92.90;101097.78;5023457;28;20045;-63
2022/12/12 03:38:30;;;;;;;40.53;17.27;;;;;;;-2.28;93.32;101096.75;5023232;28;20022;-63
2022/12/12 03:40:59;;;;;;;35.88;15.20;;;;;;;-2.28;93.25;101098.41;5021467;28;20054;-63
2022/12/12 03:43:29;;;;;;;39.13;16.27;;;;;;;-2.31;93.61;101101.59;5003392;28;20094;-63
2022/12/12 03:46:19;;;;;;;41.10;16.80;;;;;;;-2.32;93.24;101101.50;5007517;28;20038;-64
2022/12/12 03:48:48;;;;;;;39.70;16.13;;;;;;;-2.35;92.87;101104.69;5025921;28;20025;-66
2022/12/12 03:51:31;;;;;;;37.47;15.83;;;;;;;-2.36;93.36;101105.47;5027143;28;20022;-66
2022/12/12 03:54:26;;;;;;;36.42;15.63;;;;;;;-2.38;92.94;101111.22;5020906;28;20094;-66
2022/12/12 03:56:59;;;;;;;35.58;15.30;;;;;;;-2.43;92.49;101107.38;5025948;28;20021;-66
2022/12/12 04:00:00;;;;;;;38.05;15.90;;;;;;;-2.44;92.86;101106.50;5026915;28;20021;-66
2022/12/12 04:02:40;;;;;;;38.65;16.75;;;;;;;-2.46;92.61;101105.50;5019747;28;20029;-66
2022/12/12 04:06:25;;;;;;;37.85;16.02;;;;;;;-2.48;92.01;101107.03;5022857;28;20176;-66
2022/12/12 04:08:26;;;;;;;37.10;15.25;;;;;;;-2.49;92.26;101112.91;5009949;28;20046;-66
2022/12/12 04:14:17;;;;;;;38.20;14.80;;;;;;;-2.49;92.42;101105.25;5026887;28;20180;-67
2022/12/12 04:16:45;;;;;;;42.08;15.93;;;;;;;-2.54;92.03;101115.09;5022402;28;20081;-64
2022/12/12 04:23:13;;;;;;;34.03;15.35;;;;;;;-2.58;92.01;101105.41;5007058;28;20053;-64
2022/12/12 04:25:06;;;;;;;39.33;15.95;;;;;;;-2.63;91.46;101112.69;5026293;28;20024;-64
2022/12/12 04:27:43;;;;;;;35.47;15.10;;;;;;;-2.67;91.03;101113.19;5024517;28;20093;-64
2022/12/12 04:30:12;;;;;;;35.63;15.45;;;;;;;-2.71;91.75;101113.75;5026224;28;20029;-64
2022/12/12 04:32:53;;;;;;;37.95;16.27;;;;;;;-2.69;91.93;101119.84;5022624;28;20097;-64
2022/12/12 04:35:33;;;;;;;35.80;15.73;;;;;;;-2.70;92.06;101118.06;5024891;28;20010;-64
2022/12/12 04:38:05;;;;;;;39.28;16.13;;;;;;;-2.72;92.04;101124.69;5026200;28;20305;-64
2022/12/12 04:40:34;;;;;;;39.20;15.48;;;;;;;-2.72;92.07;101134.00;5026241;28;20076;-64
2022/12/12 04:43:12;;;;;;;34.10;14.52;;;;;;;-2.73;91.32;101129.69;5026318;28;20045;-64
2022/12/12 04:45:45;;;;;;;34.78;15.07;;;;;;;-2.77;91.80;101133.63;5024162;28;20096;-64
2022/12/12 04:48:15;;;;;;;38.15;15.18;;;;;;;-2.78;91.95;101141.16;5026061;28;20153;-67
2022/12/12 04:50:42;;;;;;;;;;;;;;;-2.74;92.14;101143.19;5026525;28;20053;-67
2022/12/12 04:53:13;;;;;;;30.10;13.52;;;;;;;-2.81;91.49;101139.25;5025886;28;19912;-67
2022/12/12 04:55:45;;;;;;;33.15;13.80;;;;;;;-2.84;91.30;101139.91;5013353;28;20018;-67
2022/12/12 04:58:10;;;;;;;35.78;14.82;;;;;;;-2.86;91.11;101136.31;5019191;28;20208;-67
2022/12/12 05:00:43;;;;;;;36.97;14.98;;;;;;;-2.87;91.26;101138.75;5025011;28;20064;-67
2022/12/12 05:03:17;;;;;;;31.60;14.32;;;;;;;-2.90;91.99;101130.84;5024538;28;20041;-67
2022/12/12 05:05:56;;;;;;;35.67;15.15;;;;;;;-2.94;92.42;101136.47;5025729;28;20307;-67
2022/12/12 05:08:27;;;;;;;32.77;14.73;;;;;;;-2.97;92.39;101138.00;5025701;28;20048;-68
2022/12/12 05:10:55;;;;;;;36.85;14.73;;;;;;;-3.02;92.48;101128.19;5024251;28;20033;-67
2022/12/12 05:13:26;;;;;;;33.95;14.32;;;;;;;-3.04;91.69;101130.59;5024709;28;20014;-67
2022/12/12 05:15:54;;;;;;;36.55;14.77;;;;;;;-3.07;92.23;101130.38;5025368;28;20026;-68
2022/12/12 05:18:21;;;;;;;33.00;14.60;;;;;;;-3.08;92.20;101125.13;5023156;28;20021;-64
2022/12/12 05:20:47;;;;;;;34.42;15.10;;;;;;;-3.07;92.51;101124.34;5025234;28;20223;-64
2022/12/12 05:23:12;;;;;;;37.95;15.50;;;;;;;-3.05;92.91;101127.94;5025343;28;20172;-64
2022/12/12 05:25:37;;;;;;;36.67;14.85;;;;;;;-3.02;92.39;101128.19;5025300;28;20010;-65
2022/12/12 05:28:03;;;;;;;36.35;14.55;;;;;;;-3.00;92.18;101124.09;5006577;28;20018;-64
2022/12/12 05:30:28;;;;;;;32.97;14.48;;;;;;;-3.00;91.86;101135.19;5019192;28;20010;-64
2022/12/12 05:32:54;;;;;;;34.45;15.90;;;;;;;-3.00;91.82;101135.19;5021827;28;20022;-64
2022/12/12 05:35:20;;;;;;;37.70;15.85;;;;;;;-2.98;92.24;101133.66;5018429;28;20268;-65
2022/12/12 05:37:45;;;;;;;35.90;15.30;;;;;;;-2.98;92.37;101137.88;5025123;28;20026;-64
2022/12/12 05:40:12;;;;;;;39.80;15.48;;;;;;;-3.02;92.97;101144.38;5025068;28;20025;-64
2022/12/12 05:42:37;;;;;;;35.88;15.18;;;;;;;-3.06;92.76;101144.00;5009791;28;20100;-64
2022/12/12 05:45:05;;;;;;;34.50;14.43;;;;;;;-3.10;92.98;101136.84;5016758;28;20033;-64
2022/12/12 05:47:30;;;;;;;34.97;15.27;;;;;;;-3.15;93.05;101145.00;5021872;28;20049;-68
2022/12/12 05:49:55;;;;;;;38.55;16.08;;;;;;;-3.16;92.92;101152.53;5013810;28;20018;-68
2022/12/12 05:52:20;;;;;;;35.40;14.68;;;;;;;-3.17;92.42;101155.84;5022565;28;20337;-68
2022/12/12 05:54:46;;;;;;;33.03;13.82;;;;;;;-3.20;91.90;101153.03;5024770;28;20041;-68
2022/12/12 05:57:11;;;;;;;35.22;14.77;;;;;;;-3.23;92.35;101150.22;5024572;28;20020;-68
2022/12/12 05:59:36;;;;;;;35.35;14.73;;;;;;;-3.26;91.90;101150.84;5017768;28;20176;-68
2022/12/12 06:02:02;;;;;;;33.35;14.45;;;;;;;-3.29;91.40;101152.25;5023428;28;20037;-68
2022/12/12 06:04:27;;;;;;;32.88;14.13;;;;;;;-3.29;91.49;101153.16;5023380;28;20021;-68
2022/12/12 06:06:53;;;;;;;36.97;15.30;;;;;;;-3.31;91.31;101154.69;5023718;28;20029;-68
2022/12/12 06:09:18;;;;;;;34.75;14.50;;;;;;;-3.34;91.90;101155.31;5024790;28;20276;-68
2022/12/12 06:11:43;;;;;;;34.03;14.85;;;;;;;-3.32;91.98;101155.44;5023740;28;20017;-68
2022/12/12 06:14:08;;;;;;;37.22;15.00;;;;;;;-3.30;91.93;101156.47;5023084;28;20080;-68
2022/12/12 06:16:34;;;;;;;33.67;14.32;;;;;;;-3.28;92.46;101159.16;5024415;28;20013;-68
2022/12/12 06:19:00;;;;;;;34.83;14.48;;;;;;;-3.30;92.37;101158.13;5024531;28;20033;-68
2022/12/12 06:21:26;;;;;;;36.72;14.13;;;;;;;-3.34;92.53;101155.31;5024257;28;20093;-68
2022/12/12 06:23:51;;;;;;;32.97;13.93;;;;;;;-3.38;92.61;101155.81;5024179;28;20043;-68
2022/12/12 06:26:18;;;;;;;38.03;14.25;;;;;;;-3.44;92.36;101157.84;5018817;28;20022;-68
2022/12/12 06:28:44;;;;;;;36.20;14.32;;;;;;;-3.45;92.59;101163.69;5010279;28;20022;-68
2022/12/12 06:31:10;;;;;;;39.05;15.85;;;;;;;-3.47;92.96;101166.91;5016038;28;20057;-68
2022/12/12 06:33:37;;;;;;;35.35;13.27;;;;;;;-3.50;92.43;101159.88;5024100;28;20017;-68
2022/12/12 06:36:25;;;;;;;36.20;15.07;;;;;;;-3.51;92.24;101175.94;5023160;28;20018;-68
2022/12/12 06:38:55;;;;;;;32.53;13.65;;;;;;;-3.53;92.00;101169.81;4999024;28;20264;-68
2022/12/12 06:41:23;;;;;;;36.65;15.02;;;;;;;-3.53;92.75;101173.25;5024067;28;20030;-68
2022/12/12 06:43:48;;;;;;;31.75;13.32;;;;;;;-3.52;92.59;101169.03;5015106;28;20021;-68
2022/12/12 06:46:18;;;;;;;33.28;14.05;;;;;;;-3.53;91.70;101177.47;5023760;28;20048;-68
2022/12/12 06:48:43;;;;;;;33.97;13.02;;;;;;;-3.56;91.74;101174.66;5011174;28;20176;-68
2022/12/12 06:51:13;;;;;;;30.63;13.05;;;;;;;-3.60;92.19;101180.25;5019180;28;20022;-68
2022/12/12 06:53:39;;;;;;;34.25;13.70;;;;;;;-3.64;92.09;101178.19;5010967;28;20089;-68
2022/12/12 06:56:16;;;;;;;36.05;14.00;;;;;;;-3.66;91.70;101190.78;5024135;28;20208;-68
2022/12/12 06:58:42;;;;;;;31.98;13.02;;;;;;;-3.67;91.83;101192.44;5023886;28;20089;-68
2022/12/12 07:01:09;;;;;;;30.73;13.05;;;;;;;-3.70;91.93;101189.63;5021436;28;20188;-68
2022/12/12 07:03:34;;;;;;;33.33;13.57;;;;;;;-3.69;91.51;101183.78;5019119;28;20029;-68
2022/12/12 07:06:00;;;;;;;35.13;13.98;;;;;;;-3.70;91.69;101187.06;5023690;28;20046;-68
2022/12/12 07:08:27;;;;;;;35.80;13.18;;;;;;;-3.72;91.84;101191.16;5023738;28;20026;-68
2022/12/12 07:10:53;;;;;;;30.80;13.32;;;;;;;-3.73;91.30;101197.00;5023771;28;20282;-68
2022/12/12 07:13:18;;;;;;;37.22;13.45;;;;;;;-3.73;91.85;101201.22;5023549;28;20025;-68
2022/12/12 07:15:45;;;;;;;33.17;12.35;;;;;;;-3.75;90.75;101201.09;5023773;28;20236;-68
2022/12/12 07:18:11;;;;;;;37.58;14.63;;;;;;;-3.76;91.58;101200.94;5022829;28;20037;-64
2022/12/12 07:20:41;;;;;;;34.72;12.80;;;;;;;-3.77;91.66;101206.78;5020406;28;20048;-64
2022/12/12 07:23:07;;;;;;;31.13;12.60;;;;;;;-3.77;91.54;101202.59;5023936;28;20227;-65
2022/12/12 07:25:36;;;;;;;37.67;13.55;;;;;;;-3.76;91.07;101206.94;5027470;28;20101;-64
2022/12/12 07:28:02;;;;;;;32.60;12.55;;;;;;;-3.73;91.18;101214.81;5014128;28;20022;-64
2022/12/12 07:30:27;;;;;;;34.88;13.35;;;;;;;-3.73;90.56;101214.81;5027415;28;20029;-64
2022/12/12 07:32:52;;;;;;;33.38;13.05;;;;;;;-3.75;90.94;101220.53;5027296;28;20010;-64
2022/12/12 07:35:17;;;;;;;31.60;12.40;;;;;;;-3.78;90.18;101221.19;5025333;28;20029;-64
2022/12/12 07:37:43;;;;;;;31.65;12.90;;;;;;;-3.81;90.85;101226.00;5027226;28;20014;-64
2022/12/12 07:40:08;;;;;;;35.42;13.38;;;;;;;-3.81;90.36;101226.00;5027442;28;20276;-64
2022/12/12 07:42:34;;;;;;;36.80;13.20;;;;;;;-3.81;90.41;101225.09;5013523;28;20080;-64
2022/12/12 07:44:59;;;;;;;28.83;12.82;;;;;;;-3.83;90.42;101222.44;5027046;28;20049;-64
2022/12/12 07:47:24;;;;;;;28.73;12.00;;;;;;;-3.84;90.99;101220.63;5027041;28;20050;-67
2022/12/12 07:49:50;;;;;;;29.92;11.60;;;;;;;-3.87;89.74;101226.38;5027154;28;20033;-68
2022/12/12 07:52:15;;;;;;;36.63;12.93;;;;;;;-3.90;90.59;101232.84;5024002;28;20233;-68
2022/12/12 07:54:40;;;;;;;31.35;11.68;;;;;;;-3.93;91.02;101228.34;5025757;28;20286;-68
2022/12/12 07:57:05;;;;;;;33.47;12.95;;;;;;;-3.95;90.41;101229.00;5026041;28;20058;-68
2022/12/12 07:59:31;;;;;;;30.90;12.93;;;;;;;-3.95;90.62;101236.66;5026920;28;20021;-68
2022/12/12 08:01:56;;;;;;;32.38;12.82;;;;;;;-3.94;90.64;101239.31;5027089;28;20036;-68
2022/12/12 08:04:21;;;;;;;30.10;11.38;;;;;;;-3.93;91.58;101241.09;5024224;28;20060;-68
2022/12/12 08:06:47;;;;;;;33.78;12.77;;;;;;;-3.89;90.67;101242.28;5016705;28;20024;-68
2022/12/12 08:09:12;;;;;;;32.67;12.60;;;;;;;-3.86;90.98;101247.63;5026797;28;20045;-68
2022/12/12 08:11:39;;;;;;;30.75;12.65;;;;;;;-3.85;91.38;101249.41;5017541;28;20292;-68
2022/12/12 08:14:06;;;;;;;33.80;12.80;;;;;;;-3.85;91.03;101249.41;5020446;28;20018;-68
2022/12/12 08:16:31;;;;;;;34.30;12.57;;;;;;;-3.85;90.95;101251.97;5017090;28;20018;-67
2022/12/12 08:18:57;;;;;;;30.25;11.73;;;;;;;-3.86;90.00;101248.50;5026556;28;20072;-68
2022/12/12 08:21:24;;;;;;;32.63;12.73;;;;;;;-3.85;90.46;101255.38;5022072;28;20030;-68
2022/12/12 08:23:49;;;;;;;33.17;12.40;;;;;;;-3.84;91.34;101251.19;5026310;28;20012;-68
2022/12/12 08:26:16;;;;;;;30.65;12.05;;;;;;;-3.81;91.03;101251.44;5023181;28;20015;-68
2022/12/12 08:28:48;;;;;;;33.55;11.90;;;;;;;-3.79;91.52;101254.16;5026490;28;20030;-68
2022/12/12 08:31:15;;;;;;;29.67;12.73;;;;;;;-3.77;92.15;101257.72;5025488;28;20010;-68
2022/12/12 08:33:40;;;;;;;32.95;12.23;;;;;;;-3.74;92.65;101257.97;5026489;28;20026;-68
2022/12/12 08:36:19;;;;;;;33.90;12.82;;;;;;;-3.68;93.34;101263.59;5026446;28;20018;-68
2022/12/12 08:38:45;;;;;;;36.80;12.73;;;;;;;-3.65;93.27;101262.97;5026266;28;20045;-68
2022/12/12 08:41:11;;;;;;;31.95;12.20;;;;;;;-3.65;92.92;101263.84;5024654;28;20217;-68
2022/12/12 08:43:38;;;;;;;34.33;13.25;;;;;;;-3.62;93.27;101269.25;5025989;28;20025;-67
2022/12/12 08:46:05;;;;;;;33.30;12.68;;;;;;;-3.61;92.80;101262.50;5026107;28;20030;-68
2022/12/12 08:48:32;;;;;;;33.30;13.05;;;;;;;-3.61;92.68;101265.03;5025898;28;20068;-64
2022/12/12 08:50:57;;;;;;;33.33;12.75;;;;;;;-3.59;92.49;101258.41;5026111;28;20013;-64
2022/12/12 08:53:23;;;;;;;33.22;12.73;;;;;;;-3.54;93.50;101263.16;5026369;28;20032;-65
2022/12/12 08:55:49;;;;;;;33.15;12.40;;;;;;;-3.51;93.21;101263.41;5022665;28;20032;-65
2022/12/12 08:58:14;;;;;;;35.78;12.95;;;;;;;-3.46;93.31;101260.38;5020290;28;20026;-64
2022/12/12 09:00:40;;;;;;;34.38;12.77;;;;;;;-3.43;93.50;101273.38;5025932;28;20265;-64
2022/12/12 09:03:05;;;;;;;32.15;13.63;;;;;;;-3.41;93.15;101265.09;5012347;28;20030;-65
2022/12/12 09:05:30;;;;;;;31.98;12.27;;;;;;;-3.40;93.59;101271.13;5025097;28;20045;-64
2022/12/12 09:07:56;;;;;;;32.33;12.07;;;;;;;-3.39;93.54;101271.25;5025590;28;20195;-64
2022/12/12 09:10:21;;;;;;;34.75;12.00;;;;;;;-3.38;93.84;101269.56;5007304;28;20088;-64
2022/12/12 09:12:47;;;;;;;32.10;12.65;;;;;;;-3.35;93.79;101270.72;5017554;28;20076;-64
2022/12/12 09:15:13;;;;;;;30.10;11.60;;;;;;;-3.32;93.38;101276.09;5013861;28;20024;-64
2022/12/12 09:17:38;;;;;;;36.17;12.45;;;;;;;-3.27;93.99;101276.50;5024534;28;20056;-68
2022/12/12 09:20:05;;;;;;;38.95;13.35;;;;;;;-3.23;94.01;101281.09;5013408;28;20029;-68
2022/12/12 09:22:30;;;;;;;34.75;13.13;;;;;;;-3.21;93.09;101287.22;5015461;28;20026;-68
2022/12/12 09:24:56;;;;;;;31.23;12.55;;;;;;;-3.17;93.49;101278.19;5018833;28;20041;-68
2022/12/12 09:27:21;;;;;;;32.40;13.05;;;;;;;-3.14;93.78;101281.00;5014424;28;20014;-68
2022/12/12 09:29:46;;;;;;;35.88;12.88;;;;;;;-3.12;93.78;101279.44;5025179;28;20022;-68
2022/12/12 09:32:11;;;;;;;33.88;12.18;;;;;;;-3.09;94.07;101278.81;5023457;28;20055;-68
2022/12/12 09:34:37;;;;;;;32.72;12.48;;;;;;;-3.05;93.94;101284.31;5025224;28;20022;-68
2022/12/12 09:37:03;;;;;;;34.25;11.73;;;;;;;-3.02;94.24;101278.59;5025021;28;20022;-68
2022/12/12 09:39:29;;;;;;;32.42;12.00;;;;;;;-2.95;94.10;101282.53;5025059;28;20260;-68
2022/12/12 09:41:55;;;;;;;38.00;12.23;;;;;;;-2.93;93.52;101278.47;5025146;28;20291;-68
2022/12/12 09:44:21;;;;;;;30.92;11.30;;;;;;;-2.90;93.47;101261.75;5025012;28;20052;-68
2022/12/12 09:47:06;;;;;;;32.53;11.65;;;;;;;-2.85;93.68;101265.59;5018896;28;20025;-68
2022/12/12 09:49:47;;;;;;;32.13;11.57;;;;;;;-2.81;93.40;101274.38;5020064;28;20048;-68
2022/12/12 09:52:22;;;;;;;32.78;11.70;;;;;;;-2.78;94.01;101269.56;5015160;28;20086;-68
2022/12/12 09:54:47;;;;;;;33.97;11.77;;;;;;;-2.74;93.89;101274.13;5009155;28;20025;-68
2022/12/12 09:57:37;;;;;;;29.80;11.35;;;;;;;-2.69;93.67;101272.00;5015656;28;20026;-68
2022/12/12 10:00:08;;;;;;;31.48;11.25;;;;;;;-2.67;93.20;101261.13;5011608;28;20075;-68
2022/12/12 10:02:38;;;;;;;32.30;10.93;;;;;;;-2.64;93.72;101255.41;5024770;28;20140;-68
2022/12/12 10:05:18;;;;;;;34.03;12.40;;;;;;;-2.59;93.52;101260.88;5016033;28;20018;-68
2022/12/12 10:07:57;;;;;;;28.98;11.73;;;;;;;-2.56;93.88;101253.47;5020280;28;20026;-68
2022/12/12 10:10:29;;;;;;;32.47;11.52;;;;;;;-2.53;93.99;101249.53;5012493;28;20168;-68
2022/12/12 10:12:57;;;;;;;33.72;11.45;;;;;;;-2.49;93.49;101261.78;5022197;28;20077;-68
2022/12/12 10:15:38;;;;;;;27.83;11.15;;;;;;;-2.43;93.24;101257.94;5024542;28;20028;-68
2022/12/12 10:18:08;;;;;;;29.85;11.85;;;;;;;-2.39;93.78;101253.22;5024554;28;20054;-64
2022/12/12 10:20:42;;;;;;;29.23;11.45;;;;;;;-2.38;93.04;101255.00;5011861;28;20041;-64
2022/12/12 10:23:21;;;;;;;27.35;10.30;;;;;;;-2.35;92.53;101260.34;5020080;28;20026;-64
2022/12/12 10:26:00;;;;;;;29.33;10.93;;;;;;;-2.30;92.74;101263.31;5010950;28;20032;-64
2022/12/12 10:28:29;;;;;;;31.50;11.07;;;;;;;-2.29;92.44;101263.44;5024281;28;20056;-65
2022/12/12 10:31:08;;;;;;;31.10;11.17;;;;;;;-2.26;92.44;101260.19;5024307;28;20049;-64
2022/12/12 10:33:55;;;;;;;26.85;10.48;;;;;;;-2.25;91.71;101264.56;5013577;28;20025;-65
2022/12/12 10:36:41;;;;;;;27.65;10.13;;;;;;;-2.25;91.83;101254.34;5016557;28;20028;-64
2022/12/12 10:39:19;;;;;;;29.70;10.63;;;;;;;-2.21;91.91;101247.84;5003783;28;20037;-65
2022/12/12 10:41:59;;;;;;;27.65;11.52;;;;;;;-2.19;91.51;101251.41;5014428;28;20219;-65
2022/12/12 10:44:48;;;;;;;23.25;10.70;;;;;;;-2.17;91.79;101242.19;5023951;28;20097;-65
2022/12/12 10:47:13;;;;;;;28.27;10.70;;;;;;;-2.14;91.49;101240.78;5024062;28;20064;-68
2022/12/12 10:49:39;;;;;;;25.40;10.68;;;;;;;-2.11;91.54;101237.59;5024169;28;20045;-68
2022/12/12 10:52:17;;;;;;;23.55;10.35;;;;;;;-2.05;91.85;101232.97;5013027;28;20037;-68
2022/12/12 10:54:51;;;;;;;27.60;9.95;;;;;;;-2.01;91.17;101240.13;5000365;28;20060;-68
2022/12/12 10:57:25;;;;;;;31.98;11.32;;;;;;;-1.95;90.69;101239.72;5021501;28;20213;-68
2022/12/12 10:59:55;;;;;;;29.85;10.82;;;;;;;-1.89;90.91;101245.31;5013828;28;20022;-68
2022/12/12 11:02:37;;;;;;;24.23;10.38;;;;;;;-1.87;90.75;101240.34;5023658;28;20041;-68
2022/12/12 11:05:09;;;;;;;24.95;10.02;;;;;;;-1.85;90.44;101233.69;5023917;28;20109;-68
2022/12/12 11:07:40;;;;;;;27.20;11.05;;;;;;;-1.83;90.08;101233.03;5020740;28;20009;-68
2022/12/12 11:10:30;;;;;;;27.40;10.60;;;;;;;-1.80;90.01;101238.38;5023930;28;20138;-68
2022/12/12 11:13:09;;;;;;;25.55;10.70;;;;;;;-1.79;89.60;101231.63;5018687;28;20161;-68
2022/12/12 11:15:50;;;;;;;27.80;10.10;;;;;;;-1.77;90.05;101236.09;5021576;28;20029;-68
2022/12/12 11:18:18;;;;;;;27.65;9.80;;;;;;;-1.74;88.99;101230.31;5005786;28;20130;-65
2022/12/12 11:20:46;;;;;;;22.13;9.20;;;;;;;-1.69;89.37;101231.59;5017534;28;20025;-64
2022/12/12 11:23:18;;;;;;;25.45;10.25;;;;;;;-1.62;89.31;101230.41;5015968;28;20022;-65
2022/12/12 11:25:44;;;;;;;24.13;9.90;;;;;;;-1.59;88.50;101222.97;5004441;28;20029;-64
2022/12/12 11:28:20;;;;;;;26.08;9.93;;;;;;;-1.53;88.90;101220.91;5004094;28;20022;-64
2022/12/12 11:30:51;;;;;;;26.08;10.40;;;;;;;-1.51;88.44;101218.47;5023335;28;20338;-65
2022/12/12 11:33:21;;;;;;;28.50;10.90;;;;;;;-1.47;88.14;101221.38;5020110;28;20049;-64